sensor_id;sensor_type;location;lat;lon;timestamp;temperature;humidity
23507;DHT22;11930;53.076;18.250;2023-08-01T00:00:31;19.00;99.90
23507;DHT22;11930;53.076;18.250;2023-08-01T00:03:19;19.10;99.90
23507;DHT22;11930;53.076;18.250;2023-08-01T00:05:45;19.00;99.90
23507;DHT22;11930;53.076;18.250;2023-08-01T00:08:12;19.00;99.90
23507;DHT22;11930;53.076;18.250;2023-08-01T00:10:39;19.00;99.90
23507;DHT22;11930;53.076;18.250;2023-08-01T00:13:05;19.00;99.90
23507;DHT22;11930;53.076;18.250;2023-08-01T00:15:31;19.00;99.90
23507;DHT22;11930;53.076;18.250;2023-08-01T00:17:57;18.90;99.90
23507;DHT22;11930;53.076;18.250;2023-08-01T00:20:23;19.00;99.90
23507;DHT22;11930;53.076;18.250;2023-08-01T00:22:49;19.00;99.90
23507;DHT22;11930;53.076;18.250;2023-08-01T00:27:42;19.00;99.90
23507;DHT22;11930;53.076;18.250;2023-08-01T00:30:08;19.10;99.90
23507;DHT22;11930;53.076;18.250;2023-08-01T00:32:36;19.10;99.90
23507;DHT22;11930;53.076;18.250;2023-08-01T00:35:02;19.00;99.90
23507;DHT22;11930;53.076;18.250;2023-08-01T00:37:28;19.00;99.90
23507;DHT22;11930;53.076;18.250;2023-08-01T00:39:55;19.00;99.90
23507;DHT22;11930;53.076;18.250;2023-08-01T00:42:21;19.00;99.90
23507;DHT22;11930;53.076;18.250;2023-08-01T00:44:47;19.00;99.90
23507;DHT22;11930;53.076;18.250;2023-08-01T00:47:15;19.00;99.90
23507;DHT22;11930;53.076;18.250;2023-08-01T00:49:42;18.90;99.90
23507;DHT22;11930;53.076;18.250;2023-08-01T00:52:08;18.90;99.90
23507;DHT22;11930;53.076;18.250;2023-08-01T00:54:35;18.90;99.90
23507;DHT22;11930;53.076;18.250;2023-08-01T00:57:06;18.90;99.90
23507;DHT22;11930;53.076;18.250;2023-08-01T00:59:32;18.80;99.90
23507;DHT22;11930;53.076;18.250;2023-08-01T01:01:59;18.80;99.90
23507;DHT22;11930;53.076;18.250;2023-08-01T01:04:26;18.80;99.90
23507;DHT22;11930;53.076;18.250;2023-08-01T01:06:58;18.70;99.90
23507;DHT22;11930;53.076;18.250;2023-08-01T01:09:28;18.70;99.90
23507;DHT22;11930;53.076;18.250;2023-08-01T01:11:55;18.70;99.90
23507;DHT22;11930;53.076;18.250;2023-08-01T01:14:20;18.70;99.90
23507;DHT22;11930;53.076;18.250;2023-08-01T01:16:47;18.70;99.90
23507;DHT22;11930;53.076;18.250;2023-08-01T01:19:12;18.70;99.90
23507;DHT22;11930;53.076;18.250;2023-08-01T01:21:40;18.70;99.90
23507;DHT22;11930;53.076;18.250;2023-08-01T01:24:26;18.60;99.90
23507;DHT22;11930;53.076;18.250;2023-08-01T01:26:54;18.60;99.90
23507;DHT22;11930;53.076;18.250;2023-08-01T01:29:21;18.50;99.90
23507;DHT22;11930;53.076;18.250;2023-08-01T01:31:50;18.50;99.90
23507;DHT22;11930;53.076;18.250;2023-08-01T01:34:16;18.50;99.90
23507;DHT22;11930;53.076;18.250;2023-08-01T01:36:42;18.50;99.90
23507;DHT22;11930;53.076;18.250;2023-08-01T01:39:08;18.50;99.90
23507;DHT22;11930;53.076;18.250;2023-08-01T01:41:34;18.50;99.90
23507;DHT22;11930;53.076;18.250;2023-08-01T01:44:00;18.50;99.90
23507;DHT22;11930;53.076;18.250;2023-08-01T01:46:27;18.50;99.90
23507;DHT22;11930;53.076;18.250;2023-08-01T01:48:52;18.50;99.90
23507;DHT22;11930;53.076;18.250;2023-08-01T01:51:24;18.50;99.90
23507;DHT22;11930;53.076;18.250;2023-08-01T01:53:50;18.50;99.90
23507;DHT22;11930;53.076;18.250;2023-08-01T01:56:16;18.40;99.90
23507;DHT22;11930;53.076;18.250;2023-08-01T01:58:43;18.50;99.90
23507;DHT22;11930;53.076;18.250;2023-08-01T02:01:09;18.50;99.90
23507;DHT22;11930;53.076;18.250;2023-08-01T02:03:35;18.50;99.90
23507;DHT22;11930;53.076;18.250;2023-08-01T02:06:02;18.50;99.90
23507;DHT22;11930;53.076;18.250;2023-08-01T02:08:29;18.50;99.90
23507;DHT22;11930;53.076;18.250;2023-08-01T02:10:56;18.60;99.90
23507;DHT22;11930;53.076;18.250;2023-08-01T02:13:25;18.60;99.90
23507;DHT22;11930;53.076;18.250;2023-08-01T02:15:51;18.60;99.90
23507;DHT22;11930;53.076;18.250;2023-08-01T02:18:17;18.60;99.90
23507;DHT22;11930;53.076;18.250;2023-08-01T02:20:43;18.60;99.90
23507;DHT22;11930;53.076;18.250;2023-08-01T02:23:09;18.60;99.90
23507;DHT22;11930;53.076;18.250;2023-08-01T02:25:41;18.60;99.90
23507;DHT22;11930;53.076;18.250;2023-08-01T02:28:08;18.60;99.90
23507;DHT22;11930;53.076;18.250;2023-08-01T02:30:36;18.50;99.90
23507;DHT22;11930;53.076;18.250;2023-08-01T02:33:02;18.50;99.90
23507;DHT22;11930;53.076;18.250;2023-08-01T02:35:28;18.50;99.90
23507;DHT22;11930;53.076;18.250;2023-08-01T02:37:55;18.50;99.90
23507;DHT22;11930;53.076;18.250;2023-08-01T02:40:22;18.40;99.90
23507;DHT22;11930;53.076;18.250;2023-08-01T02:42:48;18.40;99.90
23507;DHT22;11930;53.076;18.250;2023-08-01T02:45:15;18.40;99.90
23507;DHT22;11930;53.076;18.250;2023-08-01T02:47:40;18.40;99.90
23507;DHT22;11930;53.076;18.250;2023-08-01T02:50:07;18.40;99.90
23507;DHT22;11930;53.076;18.250;2023-08-01T02:52:33;18.30;99.90
23507;DHT22;11930;53.076;18.250;2023-08-01T02:59:54;18.30;99.90
23507;DHT22;11930;53.076;18.250;2023-08-01T03:02:19;18.20;99.90
23507;DHT22;11930;53.076;18.250;2023-08-01T03:04:46;18.20;99.90
23507;DHT22;11930;53.076;18.250;2023-08-01T03:07:13;18.20;99.90
23507;DHT22;11930;53.076;18.250;2023-08-01T03:09:39;18.20;99.90
23507;DHT22;11930;53.076;18.250;2023-08-01T03:12:05;18.10;99.90
23507;DHT22;11930;53.076;18.250;2023-08-01T03:14:31;18.20;99.90
23507;DHT22;11930;53.076;18.250;2023-08-01T03:16:57;18.20;99.90
23507;DHT22;11930;53.076;18.250;2023-08-01T03:19:23;18.10;99.90
23507;DHT22;11930;53.076;18.250;2023-08-01T03:21:49;18.00;99.90
23507;DHT22;11930;53.076;18.250;2023-08-01T03:24:15;18.10;99.90
23507;DHT22;11930;53.076;18.250;2023-08-01T03:26:41;18.00;99.90
23507;DHT22;11930;53.076;18.250;2023-08-01T03:29:08;18.00;99.90
23507;DHT22;11930;53.076;18.250;2023-08-01T03:31:34;18.00;99.90
23507;DHT22;11930;53.076;18.250;2023-08-01T03:34:00;18.00;99.90
23507;DHT22;11930;53.076;18.250;2023-08-01T03:36:26;18.00;99.90
23507;DHT22;11930;53.076;18.250;2023-08-01T03:38:52;18.00;99.90
23507;DHT22;11930;53.076;18.250;2023-08-01T03:41:18;18.00;99.90
23507;DHT22;11930;53.076;18.250;2023-08-01T03:43:45;18.00;99.90
23507;DHT22;11930;53.076;18.250;2023-08-01T03:46:10;18.00;99.90
23507;DHT22;11930;53.076;18.250;2023-08-01T03:48:37;18.10;99.90
23507;DHT22;11930;53.076;18.250;2023-08-01T03:51:03;18.10;99.90
23507;DHT22;11930;53.076;18.250;2023-08-01T03:53:30;18.10;99.90
23507;DHT22;11930;53.076;18.250;2023-08-01T03:55:56;18.10;99.90
23507;DHT22;11930;53.076;18.250;2023-08-01T03:58:22;18.20;99.90
23507;DHT22;11930;53.076;18.250;2023-08-01T04:00:48;18.10;99.90
23507;DHT22;11930;53.076;18.250;2023-08-01T04:03:14;18.20;99.90
23507;DHT22;11930;53.076;18.250;2023-08-01T04:05:40;18.20;99.90
23507;DHT22;11930;53.076;18.250;2023-08-01T04:08:07;18.20;99.90
23507;DHT22;11930;53.076;18.250;2023-08-01T04:10:33;18.20;99.90
23507;DHT22;11930;53.076;18.250;2023-08-01T04:12:59;18.10;99.90
23507;DHT22;11930;53.076;18.250;2023-08-01T04:15:25;18.10;99.90
23507;DHT22;11930;53.076;18.250;2023-08-01T04:17:51;18.10;99.90
23507;DHT22;11930;53.076;18.250;2023-08-01T04:20:17;18.10;99.90
23507;DHT22;11930;53.076;18.250;2023-08-01T04:22:43;18.10;99.90
23507;DHT22;11930;53.076;18.250;2023-08-01T04:27:36;18.00;99.90
23507;DHT22;11930;53.076;18.250;2023-08-01T04:30:02;18.00;99.90
23507;DHT22;11930;53.076;18.250;2023-08-01T04:37:22;17.90;99.90
23507;DHT22;11930;53.076;18.250;2023-08-01T04:39:49;17.90;99.90
23507;DHT22;11930;53.076;18.250;2023-08-01T04:42:17;17.90;99.90
23507;DHT22;11930;53.076;18.250;2023-08-01T04:47:10;17.90;99.90
23507;DHT22;11930;53.076;18.250;2023-08-01T04:49:37;17.90;99.90
23507;DHT22;11930;53.076;18.250;2023-08-01T04:52:03;17.90;99.90
23507;DHT22;11930;53.076;18.250;2023-08-01T04:54:29;17.90;99.90
23507;DHT22;11930;53.076;18.250;2023-08-01T04:56:55;17.80;99.90
23507;DHT22;11930;53.076;18.250;2023-08-01T04:59:21;17.80;99.90
23507;DHT22;11930;53.076;18.250;2023-08-01T05:01:48;18.20;99.90
23507;DHT22;11930;53.076;18.250;2023-08-01T05:04:14;17.80;99.90
23507;DHT22;11930;53.076;18.250;2023-08-01T05:06:40;17.90;99.90
23507;DHT22;11930;53.076;18.250;2023-08-01T05:09:06;17.80;99.90
23507;DHT22;11930;53.076;18.250;2023-08-01T05:11:33;17.80;99.90
23507;DHT22;11930;53.076;18.250;2023-08-01T05:13:59;17.80;99.90
23507;DHT22;11930;53.076;18.250;2023-08-01T05:16:25;17.80;99.90
23507;DHT22;11930;53.076;18.250;2023-08-01T05:18:51;17.80;99.90
23507;DHT22;11930;53.076;18.250;2023-08-01T05:21:17;17.70;99.90
23507;DHT22;11930;53.076;18.250;2023-08-01T05:23:43;17.70;99.90
23507;DHT22;11930;53.076;18.250;2023-08-01T05:26:09;17.60;99.90
23507;DHT22;11930;53.076;18.250;2023-08-01T05:28:35;17.50;99.90
23507;DHT22;11930;53.076;18.250;2023-08-01T05:31:01;17.50;99.90
23507;DHT22;11930;53.076;18.250;2023-08-01T05:35:53;17.40;99.90
23507;DHT22;11930;53.076;18.250;2023-08-01T05:38:19;17.40;99.90
23507;DHT22;11930;53.076;18.250;2023-08-01T05:40:45;17.30;99.90
23507;DHT22;11930;53.076;18.250;2023-08-01T05:43:11;17.30;99.90
23507;DHT22;11930;53.076;18.250;2023-08-01T05:45:38;17.30;99.90
23507;DHT22;11930;53.076;18.250;2023-08-01T05:48:05;17.30;99.90
23507;DHT22;11930;53.076;18.250;2023-08-01T05:50:31;17.30;99.90
23507;DHT22;11930;53.076;18.250;2023-08-01T05:52:57;17.30;99.90
23507;DHT22;11930;53.076;18.250;2023-08-01T05:55:23;17.30;99.90
23507;DHT22;11930;53.076;18.250;2023-08-01T05:57:49;17.40;99.90
23507;DHT22;11930;53.076;18.250;2023-08-01T06:00:19;17.40;99.90
23507;DHT22;11930;53.076;18.250;2023-08-01T06:02:48;17.40;99.90
23507;DHT22;11930;53.076;18.250;2023-08-01T06:05:15;17.50;99.90
23507;DHT22;11930;53.076;18.250;2023-08-01T06:07:41;17.50;99.90
23507;DHT22;11930;53.076;18.250;2023-08-01T06:10:08;17.60;99.90
23507;DHT22;11930;53.076;18.250;2023-08-01T06:12:34;17.60;99.90
23507;DHT22;11930;53.076;18.250;2023-08-01T06:15:00;17.60;99.90
23507;DHT22;11930;53.076;18.250;2023-08-01T06:17:27;17.60;99.90
23507;DHT22;11930;53.076;18.250;2023-08-01T06:19:53;17.50;99.90
23507;DHT22;11930;53.076;18.250;2023-08-01T06:22:20;17.60;99.90
23507;DHT22;11930;53.076;18.250;2023-08-01T06:24:46;17.60;99.90
23507;DHT22;11930;53.076;18.250;2023-08-01T06:29:41;17.60;99.90
23507;DHT22;11930;53.076;18.250;2023-08-01T06:32:07;17.50;99.90
23507;DHT22;11930;53.076;18.250;2023-08-01T06:34:33;17.50;99.90
23507;DHT22;11930;53.076;18.250;2023-08-01T06:39:25;17.50;99.90
23507;DHT22;11930;53.076;18.250;2023-08-01T06:41:51;17.50;99.90
23507;DHT22;11930;53.076;18.250;2023-08-01T06:44:17;17.40;99.90
23507;DHT22;11930;53.076;18.250;2023-08-01T06:46:43;17.40;99.90
23507;DHT22;11930;53.076;18.250;2023-08-01T06:49:09;17.40;99.90
23507;DHT22;11930;53.076;18.250;2023-08-01T06:54:02;17.40;99.90
23507;DHT22;11930;53.076;18.250;2023-08-01T06:56:27;17.40;99.90
23507;DHT22;11930;53.076;18.250;2023-08-01T06:58:54;17.40;99.90
23507;DHT22;11930;53.076;18.250;2023-08-01T07:01:20;17.40;99.90
23507;DHT22;11930;53.076;18.250;2023-08-01T07:03:46;17.50;99.90
23507;DHT22;11930;53.076;18.250;2023-08-01T07:06:12;17.60;99.90
23507;DHT22;11930;53.076;18.250;2023-08-01T07:11:05;17.70;99.90
23507;DHT22;11930;53.076;18.250;2023-08-01T07:13:31;17.90;99.90
23507;DHT22;11930;53.076;18.250;2023-08-01T07:15:57;18.00;99.90
23507;DHT22;11930;53.076;18.250;2023-08-01T07:18:23;18.20;99.90
23507;DHT22;11930;53.076;18.250;2023-08-01T07:20:59;18.30;99.90
23507;DHT22;11930;53.076;18.250;2023-08-01T07:23:26;18.40;99.90
23507;DHT22;11930;53.076;18.250;2023-08-01T07:25:52;18.40;99.90
23507;DHT22;11930;53.076;18.250;2023-08-01T07:28:18;18.60;99.90
23507;DHT22;11930;53.076;18.250;2023-08-01T07:30:43;18.60;99.90
23507;DHT22;11930;53.076;18.250;2023-08-01T07:33:30;18.50;99.90
23507;DHT22;11930;53.076;18.250;2023-08-01T07:35:55;18.50;99.90
23507;DHT22;11930;53.076;18.250;2023-08-01T07:38:22;18.50;99.90
23507;DHT22;11930;53.076;18.250;2023-08-01T07:40:49;18.50;99.90
23507;DHT22;11930;53.076;18.250;2023-08-01T07:43:15;18.40;99.90
23507;DHT22;11930;53.076;18.250;2023-08-01T07:45:41;18.50;99.90
23507;DHT22;11930;53.076;18.250;2023-08-01T07:48:07;18.50;99.90
23507;DHT22;11930;53.076;18.250;2023-08-01T07:50:33;18.40;99.90
23507;DHT22;11930;53.076;18.250;2023-08-01T07:52:59;18.40;99.90
23507;DHT22;11930;53.076;18.250;2023-08-01T07:55:25;18.40;99.90
23507;DHT22;11930;53.076;18.250;2023-08-01T07:57:51;18.40;99.90
23507;DHT22;11930;53.076;18.250;2023-08-01T08:00:17;18.40;99.90
23507;DHT22;11930;53.076;18.250;2023-08-01T08:02:45;18.30;99.90
23507;DHT22;11930;53.076;18.250;2023-08-01T08:05:11;18.30;99.90
23507;DHT22;11930;53.076;18.250;2023-08-01T08:07:38;18.40;99.90
23507;DHT22;11930;53.076;18.250;2023-08-01T08:10:05;18.40;99.90
23507;DHT22;11930;53.076;18.250;2023-08-01T08:12:32;18.60;99.90
23507;DHT22;11930;53.076;18.250;2023-08-01T08:14:58;18.80;99.90
23507;DHT22;11930;53.076;18.250;2023-08-01T08:17:24;18.80;99.90
23507;DHT22;11930;53.076;18.250;2023-08-01T08:19:50;18.90;99.90
23507;DHT22;11930;53.076;18.250;2023-08-01T08:22:16;19.00;99.90
23507;DHT22;11930;53.076;18.250;2023-08-01T08:24:42;18.90;99.90
23507;DHT22;11930;53.076;18.250;2023-08-01T08:27:08;18.90;99.90
23507;DHT22;11930;53.076;18.250;2023-08-01T08:29:34;18.90;99.90
23507;DHT22;11930;53.076;18.250;2023-08-01T08:32:00;18.90;99.90
23507;DHT22;11930;53.076;18.250;2023-08-01T08:34:26;18.90;99.90
23507;DHT22;11930;53.076;18.250;2023-08-01T08:36:52;18.80;99.90
23507;DHT22;11930;53.076;18.250;2023-08-01T08:39:18;18.80;99.90
23507;DHT22;11930;53.076;18.250;2023-08-01T08:41:52;18.80;99.90
23507;DHT22;11930;53.076;18.250;2023-08-01T08:44:19;18.80;99.90
23507;DHT22;11930;53.076;18.250;2023-08-01T08:46:53;18.80;99.90
23507;DHT22;11930;53.076;18.250;2023-08-01T08:49:24;18.80;99.90
23507;DHT22;11930;53.076;18.250;2023-08-01T08:51:54;18.80;99.90
23507;DHT22;11930;53.076;18.250;2023-08-01T08:54:20;18.80;99.90
23507;DHT22;11930;53.076;18.250;2023-08-01T08:56:47;18.80;99.90
23507;DHT22;11930;53.076;18.250;2023-08-01T08:59:14;18.90;99.90
23507;DHT22;11930;53.076;18.250;2023-08-01T09:01:40;18.90;99.90
23507;DHT22;11930;53.076;18.250;2023-08-01T09:04:07;18.90;99.90
23507;DHT22;11930;53.076;18.250;2023-08-01T09:06:45;19.10;99.90
23507;DHT22;11930;53.076;18.250;2023-08-01T09:11:44;19.30;99.90
23507;DHT22;11930;53.076;18.250;2023-08-01T09:14:10;19.40;99.90
23507;DHT22;11930;53.076;18.250;2023-08-01T09:16:36;19.40;99.90
23507;DHT22;11930;53.076;18.250;2023-08-01T09:19:05;19.40;99.90
23507;DHT22;11930;53.076;18.250;2023-08-01T09:21:33;19.40;99.90
23507;DHT22;11930;53.076;18.250;2023-08-01T09:24:16;19.70;99.90
23507;DHT22;11930;53.076;18.250;2023-08-01T09:26:43;19.70;99.90
23507;DHT22;11930;53.076;18.250;2023-08-01T09:29:10;19.80;99.90
23507;DHT22;11930;53.076;18.250;2023-08-01T09:31:39;19.90;99.90
23507;DHT22;11930;53.076;18.250;2023-08-01T09:34:17;20.00;99.90
23507;DHT22;11930;53.076;18.250;2023-08-01T09:36:57;20.20;99.90
23507;DHT22;11930;53.076;18.250;2023-08-01T09:39:23;20.50;99.90
23507;DHT22;11930;53.076;18.250;2023-08-01T09:41:59;20.60;99.90
23507;DHT22;11930;53.076;18.250;2023-08-01T09:44:26;20.90;99.90
23507;DHT22;11930;53.076;18.250;2023-08-01T09:47:01;21.00;99.90
23507;DHT22;11930;53.076;18.250;2023-08-01T09:49:28;21.00;99.90
23507;DHT22;11930;53.076;18.250;2023-08-01T09:51:54;20.90;99.90
23507;DHT22;11930;53.076;18.250;2023-08-01T09:54:21;20.80;99.90
23507;DHT22;11930;53.076;18.250;2023-08-01T09:56:51;20.60;99.90
23507;DHT22;11930;53.076;18.250;2023-08-01T09:59:22;20.40;99.90
23507;DHT22;11930;53.076;18.250;2023-08-01T10:01:50;20.20;99.90
23507;DHT22;11930;53.076;18.250;2023-08-01T10:04:29;20.10;99.90
23507;DHT22;11930;53.076;18.250;2023-08-01T10:06:59;20.00;99.90
23507;DHT22;11930;53.076;18.250;2023-08-01T10:09:27;20.00;99.90
23507;DHT22;11930;53.076;18.250;2023-08-01T10:11:56;19.80;99.90
23507;DHT22;11930;53.076;18.250;2023-08-01T10:14:22;19.90;99.90
23507;DHT22;11930;53.076;18.250;2023-08-01T10:16:51;19.70;99.90
23507;DHT22;11930;53.076;18.250;2023-08-01T10:19:17;19.60;99.90
23507;DHT22;11930;53.076;18.250;2023-08-01T10:21:45;19.50;99.90
23507;DHT22;11930;53.076;18.250;2023-08-01T10:24:13;19.50;99.90
23507;DHT22;11930;53.076;18.250;2023-08-01T10:26:39;19.50;99.90
23507;DHT22;11930;53.076;18.250;2023-08-01T10:29:05;19.40;99.90
23507;DHT22;11930;53.076;18.250;2023-08-01T10:31:32;19.40;99.90
23507;DHT22;11930;53.076;18.250;2023-08-01T10:34:13;19.40;99.90
23507;DHT22;11930;53.076;18.250;2023-08-01T10:36:39;19.50;99.90
23507;DHT22;11930;53.076;18.250;2023-08-01T10:39:05;19.70;99.90
23507;DHT22;11930;53.076;18.250;2023-08-01T10:41:33;19.70;99.90
23507;DHT22;11930;53.076;18.250;2023-08-01T10:44:07;19.90;99.90
23507;DHT22;11930;53.076;18.250;2023-08-01T10:49:12;20.50;99.90
23507;DHT22;11930;53.076;18.250;2023-08-01T10:51:38;20.60;99.90
23507;DHT22;11930;53.076;18.250;2023-08-01T10:54:04;20.70;99.90
23507;DHT22;11930;53.076;18.250;2023-08-01T10:58:58;20.70;99.90
23507;DHT22;11930;53.076;18.250;2023-08-01T11:01:24;20.60;99.90
23507;DHT22;11930;53.076;18.250;2023-08-01T11:03:52;20.60;99.90
23507;DHT22;11930;53.076;18.250;2023-08-01T11:06:18;20.50;99.90
23507;DHT22;11930;53.076;18.250;2023-08-01T11:08:44;20.60;99.90
23507;DHT22;11930;53.076;18.250;2023-08-01T11:11:12;20.60;99.90
23507;DHT22;11930;53.076;18.250;2023-08-01T11:13:39;20.80;99.90
23507;DHT22;11930;53.076;18.250;2023-08-01T11:16:05;20.90;99.90
23507;DHT22;11930;53.076;18.250;2023-08-01T11:18:43;20.90;99.90
23507;DHT22;11930;53.076;18.250;2023-08-01T11:21:09;20.90;99.90
23507;DHT22;11930;53.076;18.250;2023-08-01T11:23:35;20.80;99.90
23507;DHT22;11930;53.076;18.250;2023-08-01T11:26:07;20.90;99.90
23507;DHT22;11930;53.076;18.250;2023-08-01T11:28:34;20.70;99.90
23507;DHT22;11930;53.076;18.250;2023-08-01T11:31:00;20.50;99.90
23507;DHT22;11930;53.076;18.250;2023-08-01T11:33:26;20.40;99.90
23507;DHT22;11930;53.076;18.250;2023-08-01T11:35:53;20.00;99.90
23507;DHT22;11930;53.076;18.250;2023-08-01T11:38:25;19.90;99.90
23507;DHT22;11930;53.076;18.250;2023-08-01T11:40:52;19.70;99.90
23507;DHT22;11930;53.076;18.250;2023-08-01T11:43:18;19.30;99.90
23507;DHT22;11930;53.076;18.250;2023-08-01T11:45:55;19.20;99.90
23507;DHT22;11930;53.076;18.250;2023-08-01T11:48:22;19.10;99.90
23507;DHT22;11930;53.076;18.250;2023-08-01T11:50:55;18.90;99.90
23507;DHT22;11930;53.076;18.250;2023-08-01T11:53:22;18.80;99.90
23507;DHT22;11930;53.076;18.250;2023-08-01T11:55:49;18.80;99.90
23507;DHT22;11930;53.076;18.250;2023-08-01T11:58:29;18.80;99.90
23507;DHT22;11930;53.076;18.250;2023-08-01T12:01:09;18.80;99.90
23507;DHT22;11930;53.076;18.250;2023-08-01T12:03:45;18.90;99.90
23507;DHT22;11930;53.076;18.250;2023-08-01T12:06:12;18.90;99.90
23507;DHT22;11930;53.076;18.250;2023-08-01T12:08:43;18.90;99.90
23507;DHT22;11930;53.076;18.250;2023-08-01T12:11:26;18.90;99.90
23507;DHT22;11930;53.076;18.250;2023-08-01T12:14:19;18.90;99.90
23507;DHT22;11930;53.076;18.250;2023-08-01T12:16:46;19.00;99.90
23507;DHT22;11930;53.076;18.250;2023-08-01T12:19:20;19.00;99.90
23507;DHT22;11930;53.076;18.250;2023-08-01T12:21:47;19.20;99.90
23507;DHT22;11930;53.076;18.250;2023-08-01T12:24:13;19.20;99.90
23507;DHT22;11930;53.076;18.250;2023-08-01T12:26:39;19.30;99.90
23507;DHT22;11930;53.076;18.250;2023-08-01T12:29:05;19.50;99.90
23507;DHT22;11930;53.076;18.250;2023-08-01T12:31:31;19.60;99.90
23507;DHT22;11930;53.076;18.250;2023-08-01T12:33:57;19.60;99.90
23507;DHT22;11930;53.076;18.250;2023-08-01T12:36:24;19.60;99.90
23507;DHT22;11930;53.076;18.250;2023-08-01T12:38:50;19.50;99.90
23507;DHT22;11930;53.076;18.250;2023-08-01T12:41:16;19.50;99.90
23507;DHT22;11930;53.076;18.250;2023-08-01T12:43:42;19.40;99.90
23507;DHT22;11930;53.076;18.250;2023-08-01T12:46:08;19.30;99.90
23507;DHT22;11930;53.076;18.250;2023-08-01T12:48:34;19.30;99.90
23507;DHT22;11930;53.076;18.250;2023-08-01T12:51:00;19.30;99.90
23507;DHT22;11930;53.076;18.250;2023-08-01T12:53:28;19.40;99.90
23507;DHT22;11930;53.076;18.250;2023-08-01T12:55:59;19.40;99.90
23507;DHT22;11930;53.076;18.250;2023-08-01T12:58:25;19.40;99.90
23507;DHT22;11930;53.076;18.250;2023-08-01T13:00:51;19.50;99.90
23507;DHT22;11930;53.076;18.250;2023-08-01T13:03:17;19.50;99.90
23507;DHT22;11930;53.076;18.250;2023-08-01T13:05:43;19.60;99.90
23507;DHT22;11930;53.076;18.250;2023-08-01T13:08:10;19.60;99.90
23507;DHT22;11930;53.076;18.250;2023-08-01T13:10:37;19.60;99.90
23507;DHT22;11930;53.076;18.250;2023-08-01T13:13:05;19.70;99.90
23507;DHT22;11930;53.076;18.250;2023-08-01T13:15:31;19.80;99.90
23507;DHT22;11930;53.076;18.250;2023-08-01T13:17:57;19.90;99.90
23507;DHT22;11930;53.076;18.250;2023-08-01T13:20:23;20.00;99.90
23507;DHT22;11930;53.076;18.250;2023-08-01T13:22:50;20.20;99.90
23507;DHT22;11930;53.076;18.250;2023-08-01T13:25:18;20.30;99.90
23507;DHT22;11930;53.076;18.250;2023-08-01T13:27:45;20.40;99.90
23507;DHT22;11930;53.076;18.250;2023-08-01T13:30:11;20.60;99.90
23507;DHT22;11930;53.076;18.250;2023-08-01T13:32:40;20.70;99.90
23507;DHT22;11930;53.076;18.250;2023-08-01T13:35:06;20.90;99.90
23507;DHT22;11930;53.076;18.250;2023-08-01T13:37:33;20.90;99.90
23507;DHT22;11930;53.076;18.250;2023-08-01T13:39:59;21.00;99.90
23507;DHT22;11930;53.076;18.250;2023-08-01T13:42:26;21.10;99.90
23507;DHT22;11930;53.076;18.250;2023-08-01T13:44:53;21.10;99.90
23507;DHT22;11930;53.076;18.250;2023-08-01T13:47:20;21.10;99.90
23507;DHT22;11930;53.076;18.250;2023-08-01T13:49:46;21.20;99.90
23507;DHT22;11930;53.076;18.250;2023-08-01T13:52:12;21.20;99.90
23507;DHT22;11930;53.076;18.250;2023-08-01T13:54:38;21.20;99.90
23507;DHT22;11930;53.076;18.250;2023-08-01T13:57:05;21.20;99.90
23507;DHT22;11930;53.076;18.250;2023-08-01T13:59:31;21.10;99.90
23507;DHT22;11930;53.076;18.250;2023-08-01T14:01:57;21.00;99.90
23507;DHT22;11930;53.076;18.250;2023-08-01T14:04:23;20.90;99.90
23507;DHT22;11930;53.076;18.250;2023-08-01T14:06:50;20.80;99.90
23507;DHT22;11930;53.076;18.250;2023-08-01T14:09:16;20.70;99.90
23507;DHT22;11930;53.076;18.250;2023-08-01T14:11:42;20.70;99.90
23507;DHT22;11930;53.076;18.250;2023-08-01T14:14:08;20.60;99.90
23507;DHT22;11930;53.076;18.250;2023-08-01T14:19:00;20.40;99.90
23507;DHT22;11930;53.076;18.250;2023-08-01T14:21:27;20.40;99.90
23507;DHT22;11930;53.076;18.250;2023-08-01T14:23:53;20.30;99.90
23507;DHT22;11930;53.076;18.250;2023-08-01T14:26:19;20.20;99.90
23507;DHT22;11930;53.076;18.250;2023-08-01T14:28:45;20.00;99.90
23507;DHT22;11930;53.076;18.250;2023-08-01T14:31:12;20.00;99.90
23507;DHT22;11930;53.076;18.250;2023-08-01T14:33:38;19.70;99.90
23507;DHT22;11930;53.076;18.250;2023-08-01T14:36:11;19.60;99.90
23507;DHT22;11930;53.076;18.250;2023-08-01T14:38:39;19.50;99.90
23507;DHT22;11930;53.076;18.250;2023-08-01T14:41:05;19.30;99.90
23507;DHT22;11930;53.076;18.250;2023-08-01T14:43:31;19.40;99.90
23507;DHT22;11930;53.076;18.250;2023-08-01T14:45:57;19.30;99.90
23507;DHT22;11930;53.076;18.250;2023-08-01T14:48:23;19.30;99.90
23507;DHT22;11930;53.076;18.250;2023-08-01T14:50:49;19.30;99.90
23507;DHT22;11930;53.076;18.250;2023-08-01T14:53:15;19.30;99.90
23507;DHT22;11930;53.076;18.250;2023-08-01T14:55:41;19.30;99.90
23507;DHT22;11930;53.076;18.250;2023-08-01T14:58:07;19.40;99.90
23507;DHT22;11930;53.076;18.250;2023-08-01T15:00:36;19.40;99.90
23507;DHT22;11930;53.076;18.250;2023-08-01T15:03:02;19.40;99.90
23507;DHT22;11930;53.076;18.250;2023-08-01T15:05:30;19.50;99.90
23507;DHT22;11930;53.076;18.250;2023-08-01T15:07:55;19.70;99.90
23507;DHT22;11930;53.076;18.250;2023-08-01T15:10:22;19.70;99.90
23507;DHT22;11930;53.076;18.250;2023-08-01T15:12:48;20.00;99.90
23507;DHT22;11930;53.076;18.250;2023-08-01T15:17:40;20.50;99.90
23507;DHT22;11930;53.076;18.250;2023-08-01T15:20:07;20.70;99.90
23507;DHT22;11930;53.076;18.250;2023-08-01T15:22:33;20.80;99.90
23507;DHT22;11930;53.076;18.250;2023-08-01T15:24:59;20.80;99.90
23507;DHT22;11930;53.076;18.250;2023-08-01T15:27:25;20.90;99.90
23507;DHT22;11930;53.076;18.250;2023-08-01T15:29:52;20.90;99.90
23507;DHT22;11930;53.076;18.250;2023-08-01T15:32:17;20.80;99.90
23507;DHT22;11930;53.076;18.250;2023-08-01T15:34:44;20.60;99.90
23507;DHT22;11930;53.076;18.250;2023-08-01T15:37:10;20.60;99.90
23507;DHT22;11930;53.076;18.250;2023-08-01T15:39:36;20.60;99.90
23507;DHT22;11930;53.076;18.250;2023-08-01T15:42:03;20.50;99.90
23507;DHT22;11930;53.076;18.250;2023-08-01T15:44:29;20.50;99.90
23507;DHT22;11930;53.076;18.250;2023-08-01T15:46:55;20.50;99.90
23507;DHT22;11930;53.076;18.250;2023-08-01T15:49:21;20.50;99.90
23507;DHT22;11930;53.076;18.250;2023-08-01T15:51:47;20.40;99.90
23507;DHT22;11930;53.076;18.250;2023-08-01T15:54:13;20.30;99.90
23507;DHT22;11930;53.076;18.250;2023-08-01T15:56:39;20.20;99.90